sensor_id;sensor_type;location;lat;lon;timestamp;pressure;altitude;pressure_sealevel;temperature;humidity
77011;BME280;65945;53.148;17.956;2024-03-02T00:00:44;100674.21;;;8.08;90.44
77011;BME280;65945;53.148;17.956;2024-03-02T00:03:33;100671.21;;;8.07;90.46
77011;BME280;65945;53.148;17.956;2024-03-02T00:05:59;100666.21;;;8.05;90.50
77011;BME280;65945;53.148;17.956;2024-03-02T00:08:26;100663.35;;;8.04;90.60
77011;BME280;65945;53.148;17.956;2024-03-02T00:10:58;100665.95;;;8.02;90.80
77011;BME280;65945;53.148;17.956;2024-03-02T00:13:25;100665.36;;;8.00;90.95
77011;BME280;65945;53.148;17.956;2024-03-02T00:15:56;100669.64;;;7.98;90.86
77011;BME280;65945;53.148;17.956;2024-03-02T00:18:34;100668.54;;;7.97;90.99
77011;BME280;65945;53.148;17.956;2024-03-02T00:21:03;100675.95;;;7.96;91.10
77011;BME280;65945;53.148;17.956;2024-03-02T00:23:30;100673.67;;;7.94;91.30
77011;BME280;65945;53.148;17.956;2024-03-02T00:25:57;100673.41;;;7.93;91.19
77011;BME280;65945;53.148;17.956;2024-03-02T00:28:29;100666.46;;;7.92;91.16
77011;BME280;65945;53.148;17.956;2024-03-02T00:33:28;100665.26;;;7.90;91.32
77011;BME280;65945;53.148;17.956;2024-03-02T00:35:56;100663.23;;;7.89;91.55
77011;BME280;65945;53.148;17.956;2024-03-02T00:38:23;100656.18;;;7.87;91.61
77011;BME280;65945;53.148;17.956;2024-03-02T00:40:50;100655.54;;;7.86;91.68
77011;BME280;65945;53.148;17.956;2024-03-02T00:46:06;100659.59;;;7.82;91.95
77011;BME280;65945;53.148;17.956;2024-03-02T00:48:32;100667.60;;;7.80;92.28
77011;BME280;65945;53.148;17.956;2024-03-02T00:51:05;100665.05;;;7.79;92.25
77011;BME280;65945;53.148;17.956;2024-03-02T00:53:32;100659.80;;;7.77;92.37
77011;BME280;65945;53.148;17.956;2024-03-02T00:56:00;100657.94;;;7.75;92.40
77011;BME280;65945;53.148;17.956;2024-03-02T00:58:27;100660.40;;;7.74;92.70
77011;BME280;65945;53.148;17.956;2024-03-02T01:00:54;100660.90;;;7.73;92.53
77011;BME280;65945;53.148;17.956;2024-03-02T01:03:21;100657.41;;;7.71;92.88
77011;BME280;65945;53.148;17.956;2024-03-02T01:05:47;100649.79;;;7.68;92.98
77011;BME280;65945;53.148;17.956;2024-03-02T01:08:14;100645.01;;;7.66;93.19
77011;BME280;65945;53.148;17.956;2024-03-02T01:10:41;100643.65;;;7.65;93.21
77011;BME280;65945;53.148;17.956;2024-03-02T01:13:08;100644.42;;;7.63;93.68
77011;BME280;65945;53.148;17.956;2024-03-02T01:15:34;100640.09;;;7.60;93.89
77011;BME280;65945;53.148;17.956;2024-03-02T01:18:01;100634.02;;;7.58;94.28
77011;BME280;65945;53.148;17.956;2024-03-02T01:20:28;100631.05;;;7.56;93.94
77011;BME280;65945;53.148;17.956;2024-03-02T01:22:54;100628.04;;;7.55;94.29
77011;BME280;65945;53.148;17.956;2024-03-02T01:25:21;100624.31;;;7.52;94.30
77011;BME280;65945;53.148;17.956;2024-03-02T01:27:48;100619.75;;;7.50;94.27
77011;BME280;65945;53.148;17.956;2024-03-02T01:30:15;100621.70;;;7.49;94.20
77011;BME280;65945;53.148;17.956;2024-03-02T01:32:41;100622.59;;;7.49;94.46
77011;BME280;65945;53.148;17.956;2024-03-02T01:35:08;100620.95;;;7.47;94.42
77011;BME280;65945;53.148;17.956;2024-03-02T01:37:35;100613.16;;;7.47;94.23
77011;BME280;65945;53.148;17.956;2024-03-02T01:40:02;100605.77;;;7.45;94.31
77011;BME280;65945;53.148;17.956;2024-03-02T01:42:29;100601.98;;;7.44;94.74
77011;BME280;65945;53.148;17.956;2024-03-02T01:44:57;100607.70;;;7.42;94.68
77011;BME280;65945;53.148;17.956;2024-03-02T01:47:23;100613.36;;;7.41;94.76
77011;BME280;65945;53.148;17.956;2024-03-02T01:49:50;100611.54;;;7.41;94.56
77011;BME280;65945;53.148;17.956;2024-03-02T01:52:17;100616.49;;;7.42;94.17
77011;BME280;65945;53.148;17.956;2024-03-02T01:54:43;100613.24;;;7.42;94.14
77011;BME280;65945;53.148;17.956;2024-03-02T01:57:10;100611.20;;;7.43;94.34
77011;BME280;65945;53.148;17.956;2024-03-02T01:59:37;100612.94;;;7.42;94.50
77011;BME280;65945;53.148;17.956;2024-03-02T02:02:04;100613.77;;;7.41;94.29
77011;BME280;65945;53.148;17.956;2024-03-02T02:04:30;100608.50;;;7.41;94.36
77011;BME280;65945;53.148;17.956;2024-03-02T02:06:57;100610.53;;;7.41;94.30
77011;BME280;65945;53.148;17.956;2024-03-02T02:09:24;100609.70;;;7.40;94.15
77011;BME280;65945;53.148;17.956;2024-03-02T02:11:51;100600.73;;;7.39;94.26
77011;BME280;65945;53.148;17.956;2024-03-02T02:14:18;100597.68;;;7.36;94.46
77011;BME280;65945;53.148;17.956;2024-03-02T02:16:45;100600.94;;;7.33;94.42
77011;BME280;65945;53.148;17.956;2024-03-02T02:19:12;100603.23;;;7.30;94.36
77011;BME280;65945;53.148;17.956;2024-03-02T02:21:42;100600.48;;;7.27;94.31
77011;BME280;65945;53.148;17.956;2024-03-02T02:24:09;100596.63;;;7.23;94.36
77011;BME280;65945;53.148;17.956;2024-03-02T02:26:36;100601.69;;;7.20;94.33
77011;BME280;65945;53.148;17.956;2024-03-02T02:29:03;100604.46;;;7.17;94.32
77011;BME280;65945;53.148;17.956;2024-03-02T02:31:42;100606.71;;;7.14;94.61
77011;BME280;65945;53.148;17.956;2024-03-02T02:34:09;100602.14;;;7.11;94.30
77011;BME280;65945;53.148;17.956;2024-03-02T02:36:38;100608.21;;;7.09;94.70
77011;BME280;65945;53.148;17.956;2024-03-02T02:39:07;100608.33;;;7.05;94.71
77011;BME280;65945;53.148;17.956;2024-03-02T02:41:37;100603.83;;;7.03;94.91
77011;BME280;65945;53.148;17.956;2024-03-02T02:44:05;100599.54;;;7.02;95.00
77011;BME280;65945;53.148;17.956;2024-03-02T02:46:31;100598.22;;;6.99;94.96
77011;BME280;65945;53.148;17.956;2024-03-02T02:48:58;100597.96;;;6.96;95.22
77011;BME280;65945;53.148;17.956;2024-03-02T02:51:25;100603.25;;;6.93;95.24
77011;BME280;65945;53.148;17.956;2024-03-02T02:53:54;100604.50;;;6.90;95.13
77011;BME280;65945;53.148;17.956;2024-03-02T02:56:21;100603.89;;;6.87;94.99
77011;BME280;65945;53.148;17.956;2024-03-02T02:58:47;100606.75;;;6.85;95.04
77011;BME280;65945;53.148;17.956;2024-03-02T03:01:17;100606.11;;;6.81;95.03
77011;BME280;65945;53.148;17.956;2024-03-02T03:03:45;100601.02;;;6.77;94.98
77011;BME280;65945;53.148;17.956;2024-03-02T03:06:12;100599.42;;;6.73;94.72
77011;BME280;65945;53.148;17.956;2024-03-02T03:08:38;100598.27;;;6.68;94.92
77011;BME280;65945;53.148;17.956;2024-03-02T03:11:05;100598.65;;;6.64;95.20
77011;BME280;65945;53.148;17.956;2024-03-02T03:13:32;100603.12;;;6.60;95.07
77011;BME280;65945;53.148;17.956;2024-03-02T03:15:59;100605.87;;;6.56;95.18
77011;BME280;65945;53.148;17.956;2024-03-02T03:18:26;100604.36;;;6.52;95.19
77011;BME280;65945;53.148;17.956;2024-03-02T03:20:52;100610.32;;;6.49;95.37
77011;BME280;65945;53.148;17.956;2024-03-02T03:23:19;100614.34;;;6.47;95.53
77011;BME280;65945;53.148;17.956;2024-03-02T03:25:47;100605.43;;;6.46;95.71
77011;BME280;65945;53.148;17.956;2024-03-02T03:28:13;100605.63;;;6.46;95.75
77011;BME280;65945;53.148;17.956;2024-03-02T03:30:40;100601.53;;;6.45;95.93
77011;BME280;65945;53.148;17.956;2024-03-02T03:33:07;100599.47;;;6.45;95.69
77011;BME280;65945;53.148;17.956;2024-03-02T03:35:35;100600.38;;;6.45;96.19
77011;BME280;65945;53.148;17.956;2024-03-02T03:38:03;100592.19;;;6.45;96.21
77011;BME280;65945;53.148;17.956;2024-03-02T03:40:29;100597.34;;;6.47;96.78
77011;BME280;65945;53.148;17.956;2024-03-02T03:42:56;100597.94;;;6.49;96.47
77011;BME280;65945;53.148;17.956;2024-03-02T03:45:23;100599.95;;;6.52;96.53
77011;BME280;65945;53.148;17.956;2024-03-02T03:47:53;100592.41;;;6.53;96.41
77011;BME280;65945;53.148;17.956;2024-03-02T03:50:21;100585.95;;;6.56;96.65
77011;BME280;65945;53.148;17.956;2024-03-02T03:52:47;100588.30;;;6.57;96.21
77011;BME280;65945;53.148;17.956;2024-03-02T03:55:14;100591.70;;;6.59;96.00
77011;BME280;65945;53.148;17.956;2024-03-02T03:57:40;100591.08;;;6.60;96.17
77011;BME280;65945;53.148;17.956;2024-03-02T04:00:07;100589.44;;;6.61;95.90
77011;BME280;65945;53.148;17.956;2024-03-02T04:02:39;100587.92;;;6.64;95.76
77011;BME280;65945;53.148;17.956;2024-03-02T04:05:06;100583.29;;;6.65;95.79
77011;BME280;65945;53.148;17.956;2024-03-02T04:07:36;100584.02;;;6.67;95.59
77011;BME280;65945;53.148;17.956;2024-03-02T04:10:10;100580.69;;;6.69;95.56
77011;BME280;65945;53.148;17.956;2024-03-02T04:12:37;100574.41;;;6.71;95.41
77011;BME280;65945;53.148;17.956;2024-03-02T04:15:05;100578.41;;;6.72;95.40
77011;BME280;65945;53.148;17.956;2024-03-02T04:17:33;100576.55;;;6.73;95.04
77011;BME280;65945;53.148;17.956;2024-03-02T04:20:00;100577.42;;;6.74;95.08
77011;BME280;65945;53.148;17.956;2024-03-02T04:22:27;100574.71;;;6.74;95.12
77011;BME280;65945;53.148;17.956;2024-03-02T04:24:54;100578.98;;;6.75;95.04
77011;BME280;65945;53.148;17.956;2024-03-02T04:27:21;100578.27;;;6.74;95.10
77011;BME280;65945;53.148;17.956;2024-03-02T04:29:48;100576.64;;;6.73;95.11
77011;BME280;65945;53.148;17.956;2024-03-02T04:32:15;100573.90;;;6.73;95.11
77011;BME280;65945;53.148;17.956;2024-03-02T04:34:42;100574.42;;;6.73;95.04
77011;BME280;65945;53.148;17.956;2024-03-02T04:37:10;100569.24;;;6.72;94.98
77011;BME280;65945;53.148;17.956;2024-03-02T04:39:38;100569.16;;;6.72;95.06
77011;BME280;65945;53.148;17.956;2024-03-02T04:42:05;100574.45;;;6.71;94.87
77011;BME280;65945;53.148;17.956;2024-03-02T04:44:31;100569.23;;;6.72;94.93
77011;BME280;65945;53.148;17.956;2024-03-02T04:46:58;100565.57;;;6.71;94.79
77011;BME280;65945;53.148;17.956;2024-03-02T04:49:25;100585.02;;;6.72;94.85
77011;BME280;65945;53.148;17.956;2024-03-02T04:51:51;100579.03;;;6.72;94.62
77011;BME280;65945;53.148;17.956;2024-03-02T04:54:18;100584.29;;;6.73;94.58
77011;BME280;65945;53.148;17.956;2024-03-02T04:56:44;100599.39;;;6.74;94.81
77011;BME280;65945;53.148;17.956;2024-03-02T04:59:16;100600.09;;;6.75;94.41
77011;BME280;65945;53.148;17.956;2024-03-02T05:01:44;100603.30;;;6.76;94.68
77011;BME280;65945;53.148;17.956;2024-03-02T05:04:11;100602.13;;;6.74;94.51
77011;BME280;65945;53.148;17.956;2024-03-02T05:06:38;100601.23;;;6.75;94.58
77011;BME280;65945;53.148;17.956;2024-03-02T05:09:09;100600.82;;;6.74;94.44
77011;BME280;65945;53.148;17.956;2024-03-02T05:11:35;100601.36;;;6.74;94.43
77011;BME280;65945;53.148;17.956;2024-03-02T05:14:06;100606.95;;;6.73;94.19
77011;BME280;65945;53.148;17.956;2024-03-02T05:16:34;100614.02;;;6.73;94.37
77011;BME280;65945;53.148;17.956;2024-03-02T05:19:01;100609.33;;;6.74;94.37
77011;BME280;65945;53.148;17.956;2024-03-02T05:21:27;100608.17;;;6.74;94.33
77011;BME280;65945;53.148;17.956;2024-03-02T05:23:54;100615.92;;;6.74;94.39
77011;BME280;65945;53.148;17.956;2024-03-02T05:26:20;100617.52;;;6.74;94.15
77011;BME280;65945;53.148;17.956;2024-03-02T05:28:47;100615.48;;;6.74;94.33
77011;BME280;65945;53.148;17.956;2024-03-02T05:31:17;100613.60;;;6.75;94.52
77011;BME280;65945;53.148;17.956;2024-03-02T05:33:43;100607.02;;;6.75;94.40
77011;BME280;65945;53.148;17.956;2024-03-02T05:36:10;100610.43;;;6.75;94.26
77011;BME280;65945;53.148;17.956;2024-03-02T05:38:37;100615.31;;;6.76;94.52
77011;BME280;65945;53.148;17.956;2024-03-02T05:41:04;100622.26;;;6.76;94.18
77011;BME280;65945;53.148;17.956;2024-03-02T05:43:31;100620.45;;;6.77;94.17
77011;BME280;65945;53.148;17.956;2024-03-02T05:45:57;100615.77;;;6.78;94.30
77011;BME280;65945;53.148;17.956;2024-03-02T05:48:24;100622.70;;;6.79;94.46
77011;BME280;65945;53.148;17.956;2024-03-02T05:50:51;100627.30;;;6.79;94.33
77011;BME280;65945;53.148;17.956;2024-03-02T05:53:17;100632.13;;;6.81;94.39
77011;BME280;65945;53.148;17.956;2024-03-02T05:55:44;100628.40;;;6.82;94.37
77011;BME280;65945;53.148;17.956;2024-03-02T05:58:11;100638.55;;;6.84;94.23
77011;BME280;65945;53.148;17.956;2024-03-02T06:00:58;100645.91;;;6.86;94.13
77011;BME280;65945;53.148;17.956;2024-03-02T06:03:25;100647.91;;;6.88;94.10
77011;BME280;65945;53.148;17.956;2024-03-02T06:05:52;100652.34;;;6.89;94.05
77011;BME280;65945;53.148;17.956;2024-03-02T06:08:18;100652.60;;;6.90;94.11
77011;BME280;65945;53.148;17.956;2024-03-02T06:10:45;100655.64;;;6.90;94.13
77011;BME280;65945;53.148;17.956;2024-03-02T06:13:12;100654.70;;;6.91;93.90
77011;BME280;65945;53.148;17.956;2024-03-02T06:15:39;100652.05;;;6.92;94.12
77011;BME280;65945;53.148;17.956;2024-03-02T06:18:05;100660.14;;;6.92;93.93
77011;BME280;65945;53.148;17.956;2024-03-02T06:20:34;100660.53;;;6.93;93.97
77011;BME280;65945;53.148;17.956;2024-03-02T06:23:01;100657.90;;;6.94;93.93
77011;BME280;65945;53.148;17.956;2024-03-02T06:25:27;100661.52;;;6.95;93.89
77011;BME280;65945;53.148;17.956;2024-03-02T06:27:54;100658.91;;;6.96;93.98
77011;BME280;65945;53.148;17.956;2024-03-02T06:30:21;100658.02;;;6.97;93.82
77011;BME280;65945;53.148;17.956;2024-03-02T06:32:47;100650.63;;;6.99;93.81
77011;BME280;65945;53.148;17.956;2024-03-02T06:35:14;100652.41;;;6.99;94.22
77011;BME280;65945;53.148;17.956;2024-03-02T06:37:41;100654.81;;;7.00;94.05
77011;BME280;65945;53.148;17.956;2024-03-02T06:40:08;100658.80;;;7.02;93.88
77011;BME280;65945;53.148;17.956;2024-03-02T06:42:35;100664.35;;;7.04;93.79
77011;BME280;65945;53.148;17.956;2024-03-02T06:45:03;100664.27;;;7.06;93.87
77011;BME280;65945;53.148;17.956;2024-03-02T06:47:29;100660.91;;;7.07;93.95
77011;BME280;65945;53.148;17.956;2024-03-02T06:49:56;100656.36;;;7.08;93.79
77011;BME280;65945;53.148;17.956;2024-03-02T06:52:24;100653.13;;;7.09;93.84
77011;BME280;65945;53.148;17.956;2024-03-02T06:54:51;100648.40;;;7.10;93.62
77011;BME280;65945;53.148;17.956;2024-03-02T06:57:18;100649.71;;;7.11;93.97
77011;BME280;65945;53.148;17.956;2024-03-02T06:59:46;100649.15;;;7.12;93.76
77011;BME280;65945;53.148;17.956;2024-03-02T07:02:13;100642.31;;;7.15;93.89
77011;BME280;65945;53.148;17.956;2024-03-02T07:04:40;100636.63;;;7.17;93.87
77011;BME280;65945;53.148;17.956;2024-03-02T07:07:07;100637.95;;;7.20;93.65
77011;BME280;65945;53.148;17.956;2024-03-02T07:09:33;100643.03;;;7.22;93.70
77011;BME280;65945;53.148;17.956;2024-03-02T07:12:00;100645.79;;;7.25;93.68
77011;BME280;65945;53.148;17.956;2024-03-02T07:14:27;100640.11;;;7.27;93.56
77011;BME280;65945;53.148;17.956;2024-03-02T07:17:13;100651.41;;;7.29;93.53
77011;BME280;65945;53.148;17.956;2024-03-02T07:19:40;100668.77;;;7.30;93.57
77011;BME280;65945;53.148;17.956;2024-03-02T07:22:07;100671.66;;;7.32;93.38
77011;BME280;65945;53.148;17.956;2024-03-02T07:24:41;100675.38;;;7.36;93.61
77011;BME280;65945;53.148;17.956;2024-03-02T07:27:09;100668.86;;;7.41;93.35
77011;BME280;65945;53.148;17.956;2024-03-02T07:29:36;100666.75;;;7.46;93.25
77011;BME280;65945;53.148;17.956;2024-03-02T07:32:03;100665.11;;;7.49;93.15
77011;BME280;65945;53.148;17.956;2024-03-02T07:34:30;100661.13;;;7.53;92.81
77011;BME280;65945;53.148;17.956;2024-03-02T07:36:57;100660.77;;;7.56;92.79
77011;BME280;65945;53.148;17.956;2024-03-02T07:39:24;100664.27;;;7.59;92.70
77011;BME280;65945;53.148;17.956;2024-03-02T07:41:51;100674.61;;;7.64;92.83
77011;BME280;65945;53.148;17.956;2024-03-02T07:44:17;100675.74;;;7.69;92.41
77011;BME280;65945;53.148;17.956;2024-03-02T07:46:46;100673.83;;;7.73;92.31
77011;BME280;65945;53.148;17.956;2024-03-02T07:49:13;100672.30;;;7.77;92.10
77011;BME280;65945;53.148;17.956;2024-03-02T07:51:43;100671.71;;;7.83;91.93
77011;BME280;65945;53.148;17.956;2024-03-02T07:54:11;100672.41;;;7.88;91.64
77011;BME280;65945;53.148;17.956;2024-03-02T07:56:37;100678.86;;;7.94;91.63
77011;BME280;65945;53.148;17.956;2024-03-02T07:59:04;100685.11;;;8.04;91.53
77011;BME280;65945;53.148;17.956;2024-03-02T08:01:32;100682.46;;;8.16;91.17
77011;BME280;65945;53.148;17.956;2024-03-02T08:04:00;100682.20;;;8.31;91.31
77011;BME280;65945;53.148;17.956;2024-03-02T08:06:27;100682.90;;;8.48;90.91
77011;BME280;65945;53.148;17.956;2024-03-02T08:08:55;100677.01;;;8.65;90.11
77011;BME280;65945;53.148;17.956;2024-03-02T08:11:22;100679.63;;;8.82;89.76
77011;BME280;65945;53.148;17.956;2024-03-02T08:13:49;100683.20;;;9.00;89.79
77011;BME280;65945;53.148;17.956;2024-03-02T08:16:16;100691.60;;;9.19;89.87
77011;BME280;65945;53.148;17.956;2024-03-02T08:18:47;100692.77;;;9.39;89.57
77011;BME280;65945;53.148;17.956;2024-03-02T08:21:14;100688.37;;;9.57;89.32
77011;BME280;65945;53.148;17.956;2024-03-02T08:23:41;100691.35;;;9.69;88.03
77011;BME280;65945;53.148;17.956;2024-03-02T08:26:09;100694.37;;;9.77;87.59
77011;BME280;65945;53.148;17.956;2024-03-02T08:28:36;100690.11;;;9.83;86.84
77011;BME280;65945;53.148;17.956;2024-03-02T08:31:03;100694.84;;;9.89;86.83
77011;BME280;65945;53.148;17.956;2024-03-02T08:33:30;100697.55;;;9.97;86.23
77011;BME280;65945;53.148;17.956;2024-03-02T08:35:57;100697.27;;;10.02;85.34
77011;BME280;65945;53.148;17.956;2024-03-02T08:38:24;100700.41;;;10.10;86.07
77011;BME280;65945;53.148;17.956;2024-03-02T08:40:51;100696.27;;;10.19;85.37
77011;BME280;65945;53.148;17.956;2024-03-02T08:43:18;100694.61;;;10.29;85.54
77011;BME280;65945;53.148;17.956;2024-03-02T08:45:45;100689.83;;;10.37;84.68
77011;BME280;65945;53.148;17.956;2024-03-02T08:48:11;100690.50;;;10.42;84.49
77011;BME280;65945;53.148;17.956;2024-03-02T08:50:38;100689.20;;;10.50;84.02
77011;BME280;65945;53.148;17.956;2024-03-02T08:53:04;100689.79;;;10.59;84.54
77011;BME280;65945;53.148;17.956;2024-03-02T08:55:31;100693.06;;;10.72;84.60
77011;BME280;65945;53.148;17.956;2024-03-02T08:57:58;100694.86;;;10.84;83.54
77011;BME280;65945;53.148;17.956;2024-03-02T09:00:25;100697.59;;;10.94;83.46
77011;BME280;65945;53.148;17.956;2024-03-02T09:02:52;100702.01;;;11.04;83.26
77011;BME280;65945;53.148;17.956;2024-03-02T09:05:18;100706.11;;;11.15;82.73
77011;BME280;65945;53.148;17.956;2024-03-02T09:07:46;100710.35;;;11.24;82.35
77011;BME280;65945;53.148;17.956;2024-03-02T09:10:12;100702.95;;;11.28;81.24
77011;BME280;65945;53.148;17.956;2024-03-02T09:12:39;100702.13;;;11.30;81.55
77011;BME280;65945;53.148;17.956;2024-03-02T09:15:06;100705.27;;;11.34;81.75
77011;BME280;65945;53.148;17.956;2024-03-02T09:17:33;100706.89;;;11.34;81.35
77011;BME280;65945;53.148;17.956;2024-03-02T09:19:59;100719.42;;;11.30;81.05
77011;BME280;65945;53.148;17.956;2024-03-02T09:22:26;100722.25;;;11.29;81.86
77011;BME280;65945;53.148;17.956;2024-03-02T09:24:53;100725.05;;;11.32;81.96
77011;BME280;65945;53.148;17.956;2024-03-02T09:27:19;100719.83;;;11.38;81.69
77011;BME280;65945;53.148;17.956;2024-03-02T09:29:46;100715.09;;;11.47;82.08
77011;BME280;65945;53.148;17.956;2024-03-02T09:32:13;100712.43;;;11.56;81.21
77011;BME280;65945;53.148;17.956;2024-03-02T09:34:41;100709.60;;;11.60;80.47
77011;BME280;65945;53.148;17.956;2024-03-02T09:37:08;100703.80;;;11.61;80.64
77011;BME280;65945;53.148;17.956;2024-03-02T09:39:34;100714.39;;;11.66;80.50
77011;BME280;65945;53.148;17.956;2024-03-02T09:42:01;100710.25;;;11.69;79.72
77011;BME280;65945;53.148;17.956;2024-03-02T09:44:30;100701.16;;;11.74;80.09
77011;BME280;65945;53.148;17.956;2024-03-02T09:46:57;100702.61;;;11.79;80.06
77011;BME280;65945;53.148;17.956;2024-03-02T09:49:23;100710.49;;;11.82;79.73
77011;BME280;65945;53.148;17.956;2024-03-02T09:51:50;100712.03;;;11.83;79.22
77011;BME280;65945;53.148;17.956;2024-03-02T09:54:17;100711.52;;;11.84;79.60
77011;BME280;65945;53.148;17.956;2024-03-02T09:56:45;100713.64;;;11.86;77.95
77011;BME280;65945;53.148;17.956;2024-03-02T09:59:11;100712.09;;;11.85;77.38
77011;BME280;65945;53.148;17.956;2024-03-02T10:01:39;100708.14;;;11.88;78.32
77011;BME280;65945;53.148;17.956;2024-03-02T10:04:06;100715.41;;;11.96;78.35
77011;BME280;65945;53.148;17.956;2024-03-02T10:06:33;100724.30;;;12.05;78.41
77011;BME280;65945;53.148;17.956;2024-03-02T10:08:59;100718.98;;;12.08;77.30
77011;BME280;65945;53.148;17.956;2024-03-02T10:14:08;100715.40;;;12.00;76.00
77011;BME280;65945;53.148;17.956;2024-03-02T10:16:39;100715.91;;;11.98;77.25
77011;BME280;65945;53.148;17.956;2024-03-02T10:19:22;100715.07;;;12.04;77.70
77011;BME280;65945;53.148;17.956;2024-03-02T10:21:51;100718.20;;;12.08;77.59
77011;BME280;65945;53.148;17.956;2024-03-02T10:24:19;100712.14;;;12.11;76.93
77011;BME280;65945;53.148;17.956;2024-03-02T10:26:46;100706.31;;;12.11;76.49
77011;BME280;65945;53.148;17.956;2024-03-02T10:29:14;100703.95;;;12.13;77.03
77011;BME280;65945;53.148;17.956;2024-03-02T10:31:45;100709.40;;;12.23;77.22
77011;BME280;65945;53.148;17.956;2024-03-02T10:34:15;100708.66;;;12.34;76.74
77011;BME280;65945;53.148;17.956;2024-03-02T10:36:43;100707.77;;;12.41;75.79
77011;BME280;65945;53.148;17.956;2024-03-02T10:39:14;100704.11;;;12.52;76.30
77011;BME280;65945;53.148;17.956;2024-03-02T10:41:41;100702.84;;;12.60;74.28
77011;BME280;65945;53.148;17.956;2024-03-02T10:44:09;100688.64;;;12.64;73.97
77011;BME280;65945;53.148;17.956;2024-03-02T10:46:37;100689.96;;;12.71;75.21
77011;BME280;65945;53.148;17.956;2024-03-02T10:49:05;100693.27;;;12.78;74.50
77011;BME280;65945;53.148;17.956;2024-03-02T10:51:33;100696.23;;;12.82;74.33
77011;BME280;65945;53.148;17.956;2024-03-02T10:54:01;100696.42;;;12.84;73.70
77011;BME280;65945;53.148;17.956;2024-03-02T10:56:29;100696.19;;;12.88;73.95
77011;BME280;65945;53.148;17.956;2024-03-02T10:59:03;100693.55;;;12.93;73.64
77011;BME280;65945;53.148;17.956;2024-03-02T11:01:33;100686.04;;;12.93;72.34
77011;BME280;65945;53.148;17.956;2024-03-02T11:04:02;100681.47;;;12.90;72.23
77011;BME280;65945;53.148;17.956;2024-03-02T11:06:31;100685.17;;;12.85;73.22
77011;BME280;65945;53.148;17.956;2024-03-02T11:09:01;100682.73;;;12.81;73.57
77011;BME280;65945;53.148;17.956;2024-03-02T11:11:36;100680.86;;;12.79;72.33
77011;BME280;65945;53.148;17.956;2024-03-02T11:14:04;100680.11;;;12.74;72.05
77011;BME280;65945;53.148;17.956;2024-03-02T11:16:36;100683.42;;;12.76;73.38
77011;BME280;65945;53.148;17.956;2024-03-02T11:19:08;100678.41;;;12.91;73.31
77011;BME280;65945;53.148;17.956;2024-03-02T11:21:37;100683.08;;;13.06;72.85
77011;BME280;65945;53.148;17.956;2024-03-02T11:27:06;100684.38;;;13.32;72.61
77011;BME280;65945;53.148;17.956;2024-03-02T11:32:20;100684.31;;;13.42;71.67
77011;BME280;65945;53.148;17.956;2024-03-02T11:34:49;100680.05;;;13.44;72.24
77011;BME280;65945;53.148;17.956;2024-03-02T11:37:17;100673.06;;;13.43;70.14
77011;BME280;65945;53.148;17.956;2024-03-02T11:39:48;100672.02;;;13.40;70.39
77011;BME280;65945;53.148;17.956;2024-03-02T11:42:15;100669.20;;;13.34;69.47
77011;BME280;65945;53.148;17.956;2024-03-02T11:44:45;100673.39;;;13.24;70.01
77011;BME280;65945;53.148;17.956;2024-03-02T11:47:14;100677.04;;;13.21;71.24
77011;BME280;65945;53.148;17.956;2024-03-02T11:49:51;100678.32;;;13.25;72.09
77011;BME280;65945;53.148;17.956;2024-03-02T11:52:18;100680.30;;;13.32;71.96
77011;BME280;65945;53.148;17.956;2024-03-02T11:54:46;100680.73;;;13.36;71.72
77011;BME280;65945;53.148;17.956;2024-03-02T11:57:15;100670.95;;;13.33;69.81
77011;BME280;65945;53.148;17.956;2024-03-02T11:59:43;100674.19;;;13.27;71.21
77011;BME280;65945;53.148;17.956;2024-03-02T12:02:17;100670.79;;;13.24;70.63
77011;BME280;65945;53.148;17.956;2024-03-02T12:04:44;100672.84;;;13.17;70.71
77011;BME280;65945;53.148;17.956;2024-03-02T12:07:12;100666.88;;;13.12;70.87
77011;BME280;65945;53.148;17.956;2024-03-02T12:09:39;100664.05;;;13.11;71.15
77011;BME280;65945;53.148;17.956;2024-03-02T12:12:08;100664.83;;;13.14;71.16
77011;BME280;65945;53.148;17.956;2024-03-02T12:14:37;100665.91;;;13.13;70.80
77011;BME280;65945;53.148;17.956;2024-03-02T12:17:04;100661.39;;;13.08;69.94
77011;BME280;65945;53.148;17.956;2024-03-02T12:19:32;100662.91;;;13.01;70.53
77011;BME280;65945;53.148;17.956;2024-03-02T12:22:00;100660.39;;;12.98;71.00
77011;BME280;65945;53.148;17.956;2024-03-02T12:24:28;100661.65;;;13.00;72.05
77011;BME280;65945;53.148;17.956;2024-03-02T12:26:57;100657.56;;;13.02;71.71
77011;BME280;65945;53.148;17.956;2024-03-02T12:29:24;100661.19;;;13.04;71.53
77011;BME280;65945;53.148;17.956;2024-03-02T12:31:52;100661.39;;;13.07;71.44
77011;BME280;65945;53.148;17.956;2024-03-02T12:34:19;100657.53;;;13.13;71.35
77011;BME280;65945;53.148;17.956;2024-03-02T12:36:46;100656.61;;;13.20;71.33
77011;BME280;65945;53.148;17.956;2024-03-02T12:39:19;100656.47;;;13.28;70.58
77011;BME280;65945;53.148;17.956;2024-03-02T12:41:46;100652.79;;;13.29;68.99
77011;BME280;65945;53.148;17.956;2024-03-02T12:44:13;100648.01;;;13.28;68.91
77011;BME280;65945;53.148;17.956;2024-03-02T12:46:40;100650.92;;;13.33;70.35
77011;BME280;65945;53.148;17.956;2024-03-02T12:49:11;100650.72;;;13.44;70.43
77011;BME280;65945;53.148;17.956;2024-03-02T12:51:39;100646.39;;;13.57;70.18
77011;BME280;65945;53.148;17.956;2024-03-02T12:54:10;100646.36;;;13.70;70.73
77011;BME280;65945;53.148;17.956;2024-03-02T12:56:37;100645.30;;;13.81;69.65
77011;BME280;65945;53.148;17.956;2024-03-02T12:59:05;100645.57;;;13.84;68.87
77011;BME280;65945;53.148;17.956;2024-03-02T13:01:31;100647.80;;;13.85;68.81
77011;BME280;65945;53.148;17.956;2024-03-02T13:03:58;100644.66;;;13.87;68.82